Time;durP1;ratioP1;P1;durP2;ratioP2;P2;SDS_P1;SDS_P2;PMS_P1;PMS_P2;Temp;Humidity;BMP_temperature;BMP_pressure;BME280_temperature;BME280_humidity;BME280_pressure;Samples;Min_cycle;Max_cycle;Signal;HPM_P1;HPM_P2
2022/10/24 07:10:02;;;;;;;4.72;2.63;;;;;;;;;;5453035;23;20079;-89
2022/10/24 07:12:36;;;;;;;7.80;2.42;;;;;;;;;;4919414;29;20036;-89
2022/10/24 07:15:07;;;;;;;6.03;2.53;;;;;;;;;;4888023;29;20076;-89
2022/10/24 07:17:43;;;;;;;6.70;2.70;;;;;;;;;;4873280;29;20422;-89
2022/10/24 07:20:18;;;;;;;7.60;3.13;;;;;;;;;;4892424;29;20092;-89
2022/10/24 07:22:47;;;;;;;5.90;2.95;;;;;;;;;;4902789;29;20032;-88
2022/10/24 07:25:15;;;;;;;8.00;2.55;;;;;;;;;;4901796;29;20049;-88
2022/10/24 07:27:43;;;;;;;8.75;2.70;;;;;;;;;;4901606;29;20047;-89
2022/10/24 07:30:16;;;;;;;8.57;2.80;;;;;;;;;;4890643;29;20039;-89
2022/10/24 07:32:49;;;;;;;8.10;3.03;;;;;;;;;;4902640;29;20053;-89
2022/10/24 07:35:17;;;;;;;8.65;2.97;;;;;;;;;;4891723;29;20046;-89
2022/10/24 07:37:45;;;;;;;8.70;2.90;;;;;;;;;;4904946;29;20048;-89
2022/10/24 07:40:13;;;;;;;9.75;2.92;;;;;;;;;;4904792;29;20444;-89
2022/10/24 07:42:41;;;;;;;9.18;2.45;;;;;;;;;;4901387;29;20055;-88
2022/10/24 07:45:10;;;;;;;8.73;2.70;;;;;;;;;;4897165;29;20048;-88
2022/10/24 07:47:37;;;;;;;7.00;2.72;;;;;;;;;;4898821;29;20547;-88
2022/10/24 07:50:06;;;;;;;8.38;2.63;;;;;;;;;;4900894;29;20048;-88
2022/10/24 07:52:33;;;;;;;7.00;2.85;;;;;;;;;;4886556;29;20041;-88
2022/10/24 07:55:05;;;;;;;8.25;2.70;;;;;;;;;;4874613;29;20099;-88
2022/10/24 07:57:33;;;;;;;5.65;2.67;;;;;;;;;;4902333;29;20036;-88
2022/10/24 08:00:06;;;;;;;9.77;3.05;;;;;;;;;;4903267;29;20048;-87
2022/10/24 08:02:39;;;;;;;6.65;2.55;;;;;;;;;;4902648;29;20103;-87
2022/10/24 08:05:11;;;;;;;6.72;2.70;;;;;;;;;;4901862;29;20059;-88
2022/10/24 08:07:39;;;;;;;7.88;3.17;;;;;;;;;;4885440;29;20197;-87
2022/10/24 08:10:11;;;;;;;7.32;3.00;;;;;;;;;;4904268;29;20087;-87
2022/10/24 08:12:39;;;;;;;6.05;2.58;;;;;;;;;;4904022;29;20063;-88
2022/10/24 08:15:08;;;;;;;6.45;3.13;;;;;;;;;;4893443;29;20444;-88
2022/10/24 08:17:40;;;;;;;7.38;2.53;;;;;;;;;;4888286;29;20045;-87
2022/10/24 08:20:08;;;;;;;7.30;2.13;;;;;;;;;;4901152;29;20103;-89
2022/10/24 08:22:35;;;;;;;4.55;2.40;;;;;;;;;;4901115;29;20471;-88
2022/10/24 08:25:27;;;;;;;8.80;2.53;;;;;;;;;;4902279;29;20029;-88
2022/10/24 08:27:55;;;;;;;5.50;2.45;;;;;;;;;;4903143;29;20510;-88
2022/10/24 08:30:23;;;;;;;11.18;2.85;;;;;;;;;;4902851;29;20048;-88
2022/10/24 08:32:51;;;;;;;12.23;3.10;;;;;;;;;;4913873;29;20044;-87
2022/10/24 08:35:20;;;;;;;10.93;3.30;;;;;;;;;;4902461;29;20072;-88
2022/10/24 08:37:47;;;;;;;6.90;2.60;;;;;;;;;;4878981;29;20152;-87
2022/10/24 08:40:18;;;;;;;10.45;3.97;;;;;;;;;;4903408;29;20053;-88
2022/10/24 08:42:46;;;;;;;6.10;2.63;;;;;;;;;;4914433;29;20040;-87
2022/10/24 08:45:59;;;;;;;6.97;2.45;;;;;;;;;;4904029;29;20050;-88
2022/10/24 08:48:32;;;;;;;8.25;3.08;;;;;;;;;;4876680;29;20145;-88
2022/10/24 08:51:15;;;;;;;5.63;2.72;;;;;;;;;;4903456;29;20044;-88
2022/10/24 08:53:45;;;;;;;5.97;2.40;;;;;;;;;;4904168;29;20448;-88
2022/10/24 08:56:38;;;;;;;6.88;3.55;;;;;;;;;;4906876;29;20062;-87
2022/10/24 08:59:10;;;;;;;8.15;2.45;;;;;;;;;;4900782;29;20135;-88
2022/10/24 09:01:45;;;;;;;8.75;2.50;;;;;;;;;;4900525;29;20044;-88
2022/10/24 09:04:21;;;;;;;9.10;2.90;;;;;;;;;;4902986;29;20059;-88
2022/10/24 09:07:18;;;;;;;8.13;2.25;;;;;;;;;;4900412;29;20044;-87
2022/10/24 09:10:02;;;;;;;7.85;2.13;;;;;;;;;;4901888;29;20459;-88
2022/10/24 09:12:29;;;;;;;6.85;2.40;;;;;;;;;;4903433;29;20483;-88
2022/10/24 09:14:58;;;;;;;7.93;2.50;;;;;;;;;;4886884;29;20036;-87
2022/10/24 09:17:52;;;;;;;12.73;3.00;;;;;;;;;;4899415;29;20041;-87
2022/10/24 09:20:34;;;;;;;9.27;2.30;;;;;;;;;;4887839;29;20040;-88
2022/10/24 09:23:04;;;;;;;6.80;2.85;;;;;;;;;;4902158;29;20099;-87
2022/10/24 09:25:34;;;;;;;9.95;2.08;;;;;;;;;;4902570;29;20049;-87
2022/10/24 09:28:04;;;;;;;7.97;2.33;;;;;;;;;;4900983;29;20056;-87
2022/10/24 09:30:32;;;;;;;6.47;2.30;;;;;;;;;;4890507;29;20051;-87
2022/10/24 09:33:27;;;;;;;7.72;2.10;;;;;;;;;;4872420;29;20043;-87
2022/10/24 09:35:58;;;;;;;5.55;2.30;;;;;;;;;;4907709;29;20047;-87
2022/10/24 09:38:30;;;;;;;10.35;2.55;;;;;;;;;;4898566;29;20082;-88
2022/10/24 09:41:01;;;;;;;7.03;2.60;;;;;;;;;;4898726;29;20047;-87
2022/10/24 09:43:32;;;;;;;9.30;2.25;;;;;;;;;;4888203;29;20032;-88
2022/10/24 09:46:28;;;;;;;5.82;1.98;;;;;;;;;;4900124;29;20036;-87
2022/10/24 09:49:18;;;;;;;6.88;2.28;;;;;;;;;;4886118;29;20467;-88
2022/10/24 09:51:48;;;;;;;8.38;2.00;;;;;;;;;;4902005;29;20111;-87
2022/10/24 09:54:22;;;;;;;15.13;3.42;;;;;;;;;;4900871;29;20057;-88
2022/10/24 09:57:22;;;;;;;7.72;2.25;;;;;;;;;;4887749;29;20051;-88
2022/10/24 10:00:00;;;;;;;6.40;1.98;;;;;;;;;;4808840;29;20054;-87
2022/10/24 10:02:33;;;;;;;7.28;2.25;;;;;;;;;;4808355;29;20503;-87
2022/10/24 10:05:07;;;;;;;9.18;1.95;;;;;;;;;;4809573;29;20050;-88
2022/10/24 10:07:37;;;;;;;8.20;2.28;;;;;;;;;;4809304;29;20083;-88
2022/10/24 10:10:20;;;;;;;10.38;2.83;;;;;;;;;;4800883;29;20058;-87
2022/10/24 10:13:13;;;;;;;5.63;2.03;;;;;;;;;;4808763;29;20050;-87
2022/10/24 10:15:59;;;;;;;7.65;2.25;;;;;;;;;;4807216;29;20747;-87
2022/10/24 10:18:33;;;;;;;9.13;2.08;;;;;;;;;;4808672;29;20493;-87
2022/10/24 10:21:09;;;;;;;8.35;2.40;;;;;;;;;;4810202;29;20050;-88
2022/10/24 10:23:39;;;;;;;9.27;2.30;;;;;;;;;;4809090;29;20124;-87
2022/10/24 10:29:43;;;;;;;8.20;1.73;;;;;;;;;;4814130;29;20078;-87
2022/10/24 10:33:07;;;;;;;7.68;2.10;;;;;;;;;;4810345;29;20051;-87
2022/10/24 10:35:58;;;;;;;6.28;1.88;;;;;;;;;;4857037;29;20566;-87
2022/10/24 10:39:13;;;;;;;7.82;2.05;;;;;;;;;;4903995;29;20036;-87
2022/10/24 10:42:00;;;;;;;7.28;1.77;;;;;;;;;;4904047;29;20044;-88
2022/10/24 10:44:40;;;;;;;10.35;2.15;;;;;;;;;;4888483;29;20404;-87
2022/10/24 10:47:59;;;;;;;5.57;1.75;;;;;;;;;;4902329;29;20045;-87
2022/10/24 10:50:48;;;;;;;7.68;1.60;;;;;;;;;;4916971;29;20044;-88
2022/10/24 10:53:24;;;;;;;7.97;2.03;;;;;;;;;;4889866;29;20044;-88
2022/10/24 10:57:08;;;;;;;10.95;2.97;;;;;;;;;;4877266;29;20052;-87
2022/10/24 10:59:51;;;;;;;10.02;1.70;;;;;;;;;;4902023;29;20056;-88
2022/10/24 11:05:50;;;;;;;10.48;1.80;;;;;;;;;;4901193;29;20398;-87
2022/10/24 11:08:31;;;;;;;7.10;2.08;;;;;;;;;;4900395;29;20101;-88
2022/10/24 11:11:12;;;;;;;6.18;1.98;;;;;;;;;;4874503;29;20048;-87
2022/10/24 11:13:46;;;;;;;5.07;1.65;;;;;;;;;;4902044;29;20044;-88
2022/10/24 11:16:26;;;;;;;5.15;1.58;;;;;;;;;;4902679;29;20455;-88
2022/10/24 11:19:04;;;;;;;5.50;1.60;;;;;;;;;;4891067;29;20598;-88
2022/10/24 11:21:40;;;;;;;5.80;1.70;;;;;;;;;;4903874;29;20503;-87
2022/10/24 11:24:45;;;;;;;7.50;1.60;;;;;;;;;;4904790;29;20043;-88
2022/10/24 11:27:28;;;;;;;6.65;1.88;;;;;;;;;;4903084;29;20043;-87
2022/10/24 11:30:15;;;;;;;7.47;1.77;;;;;;;;;;4901284;29;20072;-88
2022/10/24 11:32:53;;;;;;;7.72;1.83;;;;;;;;;;4902947;29;20100;-88
2022/10/24 11:35:29;;;;;;;9.88;1.60;;;;;;;;;;4902630;29;20048;-88
2022/10/24 11:38:23;;;;;;;4.93;1.42;;;;;;;;;;4901245;29;20040;-88
2022/10/24 11:41:29;;;;;;;7.03;1.65;;;;;;;;;;4886513;29;20055;-88
2022/10/24 11:44:04;;;;;;;4.43;1.52;;;;;;;;;;4902210;29;20043;-88
2022/10/24 11:46:41;;;;;;;5.55;1.13;;;;;;;;;;4901219;29;20052;-88
2022/10/24 11:49:31;;;;;;;5.50;1.10;;;;;;;;;;4889181;29;20045;-88
2022/10/24 11:52:43;;;;;;;5.40;1.23;;;;;;;;;;4893495;29;20494;-88
2022/10/24 11:55:25;;;;;;;5.60;1.20;;;;;;;;;;4904579;29;20044;-89
2022/10/24 11:58:13;;;;;;;8.00;1.40;;;;;;;;;;4915463;29;20036;-89
2022/10/24 12:01:15;;;;;;;5.85;1.77;;;;;;;;;;4921414;29;20054;-92
2022/10/24 12:03:56;;;;;;;5.80;1.02;;;;;;;;;;4912475;29;20131;-92
2022/10/24 12:06:57;;;;;;;7.40;1.60;;;;;;;;;;4893885;29;20060;-91
2022/10/24 12:09:43;;;;;;;7.10;1.52;;;;;;;;;;4903999;29;20056;-92
2022/10/24 12:12:34;;;;;;;4.50;1.08;;;;;;;;;;4892546;29;20055;-91
2022/10/24 12:15:51;;;;;;;5.18;1.80;;;;;;;;;;4895579;29;20059;-89
2022/10/24 12:18:40;;;;;;;4.65;1.25;;;;;;;;;;4889093;29;20432;-89
2022/10/24 12:21:11;;;;;;;3.78;1.00;;;;;;;;;;4901674;29;20040;-89
2022/10/24 12:23:40;;;;;;;4.97;1.48;;;;;;;;;;4902699;29;20476;-89
2022/10/24 12:26:17;;;;;;;6.47;1.48;;;;;;;;;;4903315;29;20059;-89
2022/10/24 12:29:04;;;;;;;4.35;1.35;;;;;;;;;;4915944;29;20048;-89
2022/10/24 12:31:36;;;;;;;7.80;1.40;;;;;;;;;;4899551;29;20044;-89
2022/10/24 12:34:18;;;;;;;4.38;1.00;;;;;;;;;;4905947;29;20041;-90
2022/10/24 12:37:02;;;;;;;8.93;1.50;;;;;;;;;;4886995;29;20167;-89
2022/10/24 12:39:32;;;;;;;4.20;1.30;;;;;;;;;;4901564;29;20048;-89
2022/10/24 12:42:34;;;;;;;4.57;1.25;;;;;;;;;;4917924;29;20162;-89
2022/10/24 12:45:28;;;;;;;6.38;1.20;;;;;;;;;;4885435;29;20056;-90
2022/10/24 12:47:55;;;;;;;6.13;1.20;;;;;;;;;;4883412;29;20052;-90
2022/10/24 12:50:56;;;;;;;4.28;1.60;;;;;;;;;;4854896;29;20044;-89
2022/10/24 12:54:02;;;;;;;4.93;1.17;;;;;;;;;;4881320;29;20123;-90
2022/10/24 12:56:31;;;;;;;6.68;1.05;;;;;;;;;;4886488;29;20511;-90
2022/10/24 12:59:17;;;;;;;4.78;0.95;;;;;;;;;;4881287;29;20131;-89
2022/10/24 13:01:47;;;;;;;6.55;1.13;;;;;;;;;;4896460;29;20075;-89
2022/10/24 13:05:02;;;;;;;5.22;1.23;;;;;;;;;;4858556;29;20452;-89
2022/10/24 13:08:04;;;;;;;3.75;1.17;;;;;;;;;;4884354;29;20041;-89
2022/10/24 13:10:48;;;;;;;7.15;0.98;;;;;;;;;;4882157;29;20032;-90
2022/10/24 13:14:03;;;;;;;8.35;1.20;;;;;;;;;;4884075;29;20033;-90
2022/10/24 13:16:53;;;;;;;5.18;1.10;;;;;;;;;;4834238;29;20709;-90
2022/10/24 13:19:21;;;;;;;3.72;1.00;;;;;;;;;;4838185;29;20081;-90
2022/10/24 13:22:00;;;;;;;5.65;1.40;;;;;;;;;;4838755;29;20068;-90
2022/10/24 13:24:32;;;;;;;7.65;1.20;;;;;;;;;;4838014;29;20042;-91
2022/10/24 13:27:05;;;;;;;5.95;1.20;;;;;;;;;;4835171;29;20061;-91
2022/10/24 13:29:40;;;;;;;7.22;1.52;;;;;;;;;;4836030;29;20141;-90
2022/10/24 13:32:10;;;;;;;5.43;1.50;;;;;;;;;;4823028;29;20049;-91
2022/10/24 13:34:54;;;;;;;7.00;1.42;;;;;;;;;;4836422;29;20505;-90
2022/10/24 13:37:25;;;;;;;4.00;1.30;;;;;;;;;;4835215;29;20041;-91
2022/10/24 13:39:59;;;;;;;4.28;1.13;;;;;;;;;;4815009;29;20064;-91
2022/10/24 13:42:34;;;;;;;4.85;1.10;;;;;;;;;;4832022;29;20121;-91
2022/10/24 13:45:20;;;;;;;5.47;1.35;;;;;;;;;;4833496;29;20074;-91
2022/10/24 13:47:52;;;;;;;6.90;1.30;;;;;;;;;;4832701;29;20537;-90
2022/10/24 13:50:23;;;;;;;3.60;1.63;;;;;;;;;;4835037;29;20128;-91
2022/10/24 13:53:28;;;;;;;6.57;1.15;;;;;;;;;;4854639;29;20199;-90
2022/10/24 13:56:07;;;;;;;5.72;1.05;;;;;;;;;;4881678;29;20047;-89
2022/10/24 13:58:42;;;;;;;3.80;0.93;;;;;;;;;;4879827;29;20128;-91
2022/10/24 14:01:19;;;;;;;4.63;1.10;;;;;;;;;;4888291;29;20045;-94
2022/10/24 14:03:49;;;;;;;10.75;2.17;;;;;;;;;;4877447;29;20504;-90
2022/10/24 14:06:27;;;;;;;6.38;1.23;;;;;;;;;;4889829;29;20044;-88
2022/10/24 14:08:59;;;;;;;3.97;1.10;;;;;;;;;;4877207;29;20053;-90
2022/10/24 14:11:39;;;;;;;5.95;1.30;;;;;;;;;;4877547;29;20045;-92
2022/10/24 14:14:37;;;;;;;10.18;1.33;;;;;;;;;;4901440;29;20089;-93
2022/10/24 14:17:28;;;;;;;7.70;1.40;;;;;;;;;;4889109;29;20044;-93
2022/10/24 14:19:59;;;;;;;5.30;1.10;;;;;;;;;;4885280;29;20052;-89
2022/10/24 14:22:40;;;;;;;6.43;0.98;;;;;;;;;;4882713;29;20148;-89
2022/10/24 14:25:23;;;;;;;12.75;1.67;;;;;;;;;;4867271;29;20052;-88
2022/10/24 14:27:57;;;;;;;6.15;1.27;;;;;;;;;;4884095;29;20045;-89
2022/10/24 14:30:27;;;;;;;4.45;1.10;;;;;;;;;;4887057;29;20049;-89
2022/10/24 14:33:06;;;;;;;5.18;1.05;;;;;;;;;;4872363;29;20135;-90
2022/10/24 14:36:28;;;;;;;4.68;1.17;;;;;;;;;;4886779;29;20029;-90
2022/10/24 14:38:58;;;;;;;4.20;1.25;;;;;;;;;;4876356;29;20059;-90
2022/10/24 14:41:28;;;;;;;6.05;1.40;;;;;;;;;;4848946;29;20060;-90
2022/10/24 14:43:58;;;;;;;7.00;1.08;;;;;;;;;;4870528;29;20052;-90
2022/10/24 14:46:34;;;;;;;9.80;1.20;;;;;;;;;;4886372;29;20923;-91
2022/10/24 14:49:26;;;;;;;3.83;0.93;;;;;;;;;;4885294;29;20055;-90
2022/10/24 14:52:18;;;;;;;6.25;1.17;;;;;;;;;;4885326;29;20048;-90
2022/10/24 14:55:01;;;;;;;5.25;1.10;;;;;;;;;;4876483;29;20057;-90
2022/10/24 14:57:31;;;;;;;4.53;0.90;;;;;;;;;;4887981;29;20056;-90
2022/10/24 15:00:25;;;;;;;4.13;1.02;;;;;;;;;;4883865;29;20033;-90
2022/10/24 15:03:17;;;;;;;13.40;1.38;;;;;;;;;;4886409;29;20036;-90
2022/10/24 15:06:18;;;;;;;8.90;1.65;;;;;;;;;;4857288;29;20098;-90
2022/10/24 15:08:58;;;;;;;3.65;1.40;;;;;;;;;;4883269;29;20060;-90
2022/10/24 15:11:37;;;;;;;6.80;1.15;;;;;;;;;;4859048;29;20052;-89
2022/10/24 15:14:34;;;;;;;8.50;1.70;;;;;;;;;;4901005;29;20088;-89
2022/10/24 15:17:24;;;;;;;6.25;1.30;;;;;;;;;;4870686;29;20171;-90
2022/10/24 15:19:58;;;;;;;4.72;1.30;;;;;;;;;;4887223;29;20045;-92
2022/10/24 15:22:27;;;;;;;6.95;1.40;;;;;;;;;;4883339;29;20138;-89
2022/10/24 15:25:43;;;;;;;6.25;1.60;;;;;;;;;;4886550;29;20096;-89
2022/10/24 15:29:00;;;;;;;5.90;1.40;;;;;;;;;;4884340;29;20135;-89
2022/10/24 15:31:37;;;;;;;9.40;2.20;;;;;;;;;;4783430;29;20046;-90
2022/10/24 15:34:10;;;;;;;7.10;2.25;;;;;;;;;;4808397;29;20185;-90
2022/10/24 15:36:41;;;;;;;7.00;1.85;;;;;;;;;;4808567;29;20046;-89
2022/10/24 15:39:09;;;;;;;5.28;1.48;;;;;;;;;;4809596;29;20054;-89
2022/10/24 15:42:01;;;;;;;7.38;1.60;;;;;;;;;;4808905;29;20051;-89
2022/10/24 15:44:29;;;;;;;4.38;1.33;;;;;;;;;;4807220;29;20053;-89
2022/10/24 15:46:57;;;;;;;10.20;2.35;;;;;;;;;;4808650;29;20070;-90
2022/10/24 15:49:27;;;;;;;8.43;1.60;;;;;;;;;;4798485;29;20050;-89
2022/10/24 15:51:57;;;;;;;6.90;1.70;;;;;;;;;;4806737;29;20071;-89
2022/10/24 15:54:49;;;;;;;5.57;1.38;;;;;;;;;;4782829;29;20046;-89
2022/10/24 15:57:17;;;;;;;6.75;1.25;;;;;;;;;;4793965;29;20059;-89
2022/10/24 15:59:45;;;;;;;7.68;1.30;;;;;;;;;;4808305;29;20065;-89
2022/10/24 16:02:20;;;;;;;5.00;1.50;;;;;;;;;;4789582;29;20088;-89
2022/10/24 16:04:47;;;;;;;5.88;1.13;;;;;;;;;;4815855;29;20140;-89
2022/10/24 16:07:15;;;;;;;4.43;1.48;;;;;;;;;;4855470;29;20044;-89
2022/10/24 16:09:43;;;;;;;5.72;1.13;;;;;;;;;;4881972;29;20051;-89
2022/10/24 16:12:15;;;;;;;4.32;1.10;;;;;;;;;;4886841;29;20643;-90
2022/10/24 16:14:47;;;;;;;4.65;0.98;;;;;;;;;;4884584;29;20041;-89
2022/10/24 16:17:15;;;;;;;4.32;1.00;;;;;;;;;;4885419;29;20045;-89
2022/10/24 16:20:07;;;;;;;7.45;1.50;;;;;;;;;;4896917;29;20157;-89
2022/10/24 16:22:35;;;;;;;7.13;1.40;;;;;;;;;;4884644;29;20230;-89
2022/10/24 16:25:03;;;;;;;3.72;1.08;;;;;;;;;;4869230;29;20493;-89
2022/10/24 16:27:31;;;;;;;3.70;1.15;;;;;;;;;;4882933;29;20049;-89
2022/10/24 16:30:05;;;;;;;6.97;1.42;;;;;;;;;;4885099;29;20139;-90
2022/10/24 16:32:33;;;;;;;7.32;1.33;;;;;;;;;;4884363;29;20139;-88
2022/10/24 16:35:05;;;;;;;3.83;1.20;;;;;;;;;;4884621;29;20144;-88
2022/10/24 16:37:33;;;;;;;5.93;1.35;;;;;;;;;;4894951;29;20523;-88
2022/10/24 16:40:05;;;;;;;7.97;1.30;;;;;;;;;;4885096;29;20202;-88
2022/10/24 16:42:33;;;;;;;6.30;1.42;;;;;;;;;;4882133;29;20158;-89
2022/10/24 16:45:01;;;;;;;7.25;1.30;;;;;;;;;;4882308;29;20370;-89
2022/10/24 16:47:29;;;;;;;3.38;1.15;;;;;;;;;;4876105;29;20182;-90
2022/10/24 16:50:25;;;;;;;7.15;1.80;;;;;;;;;;4870239;29;20375;-89
2022/10/24 16:52:58;;;;;;;10.18;1.52;;;;;;;;;;4894036;29;20210;-91
2022/10/24 16:55:30;;;;;;;5.20;1.50;;;;;;;;;;4882088;29;20146;-89
2022/10/24 16:57:59;;;;;;;5.15;1.48;;;;;;;;;;4895968;29;20123;-89
2022/10/24 17:00:29;;;;;;;8.13;1.33;;;;;;;;;;4881884;29;20499;-89
2022/10/24 17:02:57;;;;;;;7.90;1.33;;;;;;;;;;4870060;29;20129;-89
2022/10/24 17:05:27;;;;;;;9.80;1.60;;;;;;;;;;4879513;29;21105;-89
2022/10/24 17:07:57;;;;;;;6.72;1.08;;;;;;;;;;4879837;29;20037;-90
2022/10/24 17:10:26;;;;;;;2.92;1.20;;;;;;;;;;4894740;29;20127;-89
2022/10/24 17:12:55;;;;;;;6.40;1.50;;;;;;;;;;4895646;29;20040;-89
2022/10/24 17:15:23;;;;;;;9.15;1.27;;;;;;;;;;4879799;29;20049;-89
2022/10/24 17:18:19;;;;;;;3.88;1.20;;;;;;;;;;4876499;29;21963;-87
2022/10/24 17:20:58;;;;;;;5.90;1.30;;;;;;;;;;4878064;29;20132;-91
2022/10/24 17:23:31;;;;;;;6.15;1.55;;;;;;;;;;4858343;29;20049;-90
2022/10/24 17:26:00;;;;;;;7.53;1.45;;;;;;;;;;4878275;29;20119;-90
2022/10/24 17:28:27;;;;;;;4.95;1.48;;;;;;;;;;4879730;29;20047;-89
2022/10/24 17:31:19;;;;;;;6.22;1.38;;;;;;;;;;4858548;29;20032;-90
2022/10/24 17:33:47;;;;;;;4.78;2.13;;;;;;;;;;4900200;29;20044;-89
2022/10/24 17:36:44;;;;;;;8.32;1.50;;;;;;;;;;4880786;29;20041;-89
2022/10/24 17:39:16;;;;;;;9.13;1.35;;;;;;;;;;4877142;29;20059;-89
2022/10/24 17:41:43;;;;;;;7.03;1.23;;;;;;;;;;4890884;29;20053;-89
2022/10/24 17:44:16;;;;;;;9.40;1.20;;;;;;;;;;4878700;29;20036;-89
2022/10/24 17:46:44;;;;;;;6.35;1.50;;;;;;;;;;4877132;29;20056;-88
2022/10/24 17:49:13;;;;;;;8.93;1.60;;;;;;;;;;4881371;29;20052;-88
2022/10/24 17:51:51;;;;;;;4.03;1.20;;;;;;;;;;4896252;29;20060;-88
2022/10/24 17:54:23;;;;;;;8.25;1.15;;;;;;;;;;4878524;29;20200;-90
2022/10/24 17:56:51;;;;;;;5.85;1.20;;;;;;;;;;4875815;29;20052;-89
2022/10/24 17:59:20;;;;;;;4.95;1.27;;;;;;;;;;4880953;29;20109;-88
2022/10/24 18:01:54;;;;;;;7.90;1.20;;;;;;;;;;4866986;29;20048;-88
2022/10/24 18:04:37;;;;;;;5.93;1.52;;;;;;;;;;4880718;29;20118;-88
2022/10/24 18:07:27;;;;;;;6.38;1.20;;;;;;;;;;4868340;29;20524;-87
2022/10/24 18:09:59;;;;;;;3.85;1.45;;;;;;;;;;4880509;29;20044;-88
2022/10/24 18:12:27;;;;;;;4.40;1.05;;;;;;;;;;4880837;29;20131;-88
2022/10/24 18:14:55;;;;;;;6.72;1.45;;;;;;;;;;4882770;29;20924;-88
2022/10/24 18:17:23;;;;;;;6.72;1.30;;;;;;;;;;4877567;29;20045;-88
2022/10/24 18:19:51;;;;;;;3.85;1.33;;;;;;;;;;4879924;29;20048;-88
2022/10/24 18:22:19;;;;;;;8.25;1.65;;;;;;;;;;4881936;29;20052;-88
2022/10/24 18:24:47;;;;;;;5.22;1.30;;;;;;;;;;4878504;29;20412;-88
2022/10/24 18:27:15;;;;;;;2.72;1.23;;;;;;;;;;4894610;29;20131;-87
2022/10/24 18:29:43;;;;;;;10.15;2.67;;;;;;;;;;4869187;29;20117;-87
2022/10/24 18:32:13;;;;;;;4.75;1.30;;;;;;;;;;4880360;29;20105;-88
2022/10/24 18:34:41;;;;;;;8.05;2.08;;;;;;;;;;4878798;29;20040;-88
2022/10/24 18:37:39;;;;;;;3.85;1.48;;;;;;;;;;4881635;29;20484;-88
2022/10/24 18:40:58;;;;;;;5.72;1.42;;;;;;;;;;4883389;29;20124;-88
2022/10/24 18:43:25;;;;;;;6.55;1.63;;;;;;;;;;4877755;29;20821;-88
2022/10/24 18:46:19;;;;;;;4.53;1.20;;;;;;;;;;4879688;29;20446;-87
2022/10/24 18:48:48;;;;;;;5.22;1.30;;;;;;;;;;4882217;29;20171;-88
2022/10/24 18:51:31;;;;;;;3.80;1.40;;;;;;;;;;4880551;29;20065;-88
2022/10/24 18:54:03;;;;;;;3.42;1.30;;;;;;;;;;4897478;29;20041;-87
2022/10/24 18:56:31;;;;;;;4.80;1.20;;;;;;;;;;4879445;29;20101;-87
2022/10/24 18:58:59;;;;;;;4.32;1.23;;;;;;;;;;4882948;29;20045;-88
2022/10/24 19:01:37;;;;;;;6.88;1.35;;;;;;;;;;4867040;29;20751;-88
2022/10/24 19:04:15;;;;;;;5.18;1.40;;;;;;;;;;4872773;29;20736;-88
2022/10/24 19:06:45;;;;;;;5.70;1.30;;;;;;;;;;4884768;29;20883;-88
2022/10/24 19:09:25;;;;;;;4.57;1.10;;;;;;;;;;4871071;29;20049;-88
2022/10/24 19:11:59;;;;;;;5.68;1.70;;;;;;;;;;4867771;29;20044;-88
2022/10/24 19:14:33;;;;;;;2.95;1.17;;;;;;;;;;4881446;29;20044;-88
2022/10/24 19:17:03;;;;;;;4.38;1.17;;;;;;;;;;4880000;29;20073;-88
2022/10/24 19:19:35;;;;;;;3.53;1.35;;;;;;;;;;4869974;29;20132;-88
2022/10/24 19:22:03;;;;;;;7.55;1.45;;;;;;;;;;4896724;29;20123;-88
2022/10/24 19:24:56;;;;;;;4.85;1.25;;;;;;;;;;4884618;29;20084;-88
2022/10/24 19:27:28;;;;;;;4.10;1.52;;;;;;;;;;4883344;29;20041;-88
2022/10/24 19:29:55;;;;;;;6.03;1.20;;;;;;;;;;4884062;29;20041;-88
2022/10/24 19:32:25;;;;;;;10.60;1.50;;;;;;;;;;4880275;29;20056;-88
2022/10/24 19:34:54;;;;;;;4.10;1.50;;;;;;;;;;4881488;29;20048;-88
2022/10/24 19:37:22;;;;;;;4.60;1.50;;;;;;;;;;4884239;29;20053;-88
2022/10/24 19:39:55;;;;;;;8.50;1.92;;;;;;;;;;4881699;29;20125;-88
2022/10/24 19:42:23;;;;;;;3.17;1.50;;;;;;;;;;4885462;29;20528;-88
2022/10/24 19:44:55;;;;;;;7.57;1.33;;;;;;;;;;4883530;29;20045;-89
2022/10/24 19:47:23;;;;;;;4.38;1.70;;;;;;;;;;4882048;29;20042;-87
2022/10/24 19:49:51;;;;;;;3.67;1.45;;;;;;;;;;4883396;29;20101;-87
2022/10/24 19:52:23;;;;;;;8.93;1.90;;;;;;;;;;4896384;29;20075;-87
2022/10/24 19:54:51;;;;;;;4.57;1.80;;;;;;;;;;4881973;29;20044;-87
2022/10/24 19:57:19;;;;;;;8.93;2.28;;;;;;;;;;4867623;29;20096;-87
2022/10/24 19:59:47;;;;;;;6.32;1.85;;;;;;;;;;4883814;29;20585;-87
2022/10/24 20:02:15;;;;;;;7.05;2.67;;;;;;;;;;4881453;29;20045;-87
2022/10/24 20:05:09;;;;;;;3.72;1.25;;;;;;;;;;4881401;29;20045;-87
2022/10/24 20:07:41;;;;;;;7.97;1.90;;;;;;;;;;4881818;29;20048;-87
2022/10/24 20:10:09;;;;;;;5.03;2.03;;;;;;;;;;4882815;29;20659;-86
2022/10/24 20:13:01;;;;;;;7.13;1.70;;;;;;;;;;4883217;29;20131;-87
2022/10/24 20:15:59;;;;;;;12.85;2.42;;;;;;;;;;4897112;29;20045;-87
2022/10/24 20:18:52;;;;;;;8.18;1.98;;;;;;;;;;4881918;29;20048;-86
2022/10/24 20:21:51;;;;;;;5.03;1.52;;;;;;;;;;4892112;29;20037;-88
2022/10/24 20:24:24;;;;;;;7.57;1.98;;;;;;;;;;4878897;29;20124;-88
2022/10/24 20:27:00;;;;;;;6.18;1.75;;;;;;;;;;4880344;29;20052;-87
2022/10/24 20:29:29;;;;;;;6.28;1.80;;;;;;;;;;4890508;29;20523;-87
2022/10/24 20:31:58;;;;;;;6.35;1.95;;;;;;;;;;4876194;29;20044;-86
2022/10/24 20:34:25;;;;;;;7.53;1.85;;;;;;;;;;4880791;29;20133;-87
2022/10/24 20:36:53;;;;;;;7.63;1.77;;;;;;;;;;4879382;29;20056;-87
2022/10/24 20:39:21;;;;;;;6.68;2.10;;;;;;;;;;4882892;29;20068;-87
2022/10/24 20:41:53;;;;;;;8.38;2.40;;;;;;;;;;4893346;29;20059;-87
2022/10/24 20:44:21;;;;;;;6.72;1.63;;;;;;;;;;4889574;29;20060;-87
2022/10/24 20:46:49;;;;;;;4.93;2.00;;;;;;;;;;4860919;29;20531;-87
2022/10/24 20:49:17;;;;;;;13.73;2.65;;;;;;;;;;4894077;29;20053;-87
2022/10/24 20:51:49;;;;;;;9.32;3.28;;;;;;;;;;4870338;29;20132;-87
2022/10/24 20:54:18;;;;;;;6.47;1.73;;;;;;;;;;4884695;29;20638;-87
2022/10/24 20:56:45;;;;;;;5.88;1.75;;;;;;;;;;4880822;29;20053;-87
2022/10/24 20:59:17;;;;;;;9.95;1.90;;;;;;;;;;4895003;29;20040;-88
2022/10/24 21:01:45;;;;;;;5.97;1.75;;;;;;;;;;4878635;29;20060;-88
2022/10/24 21:04:13;;;;;;;9.93;1.67;;;;;;;;;;4869671;29;20693;-88
2022/10/24 21:07:11;;;;;;;7.13;1.83;;;;;;;;;;4883206;29;20028;-87
2022/10/24 21:09:43;;;;;;;10.20;2.35;;;;;;;;;;4883876;29;20052;-88
2022/10/24 21:12:11;;;;;;;5.97;2.00;;;;;;;;;;4879461;29;20665;-87
2022/10/24 21:17:34;;;;;;;5.53;1.92;;;;;;;;;;4882126;29;20751;-88
2022/10/24 21:20:02;;;;;;;6.63;1.90;;;;;;;;;;4883509;29;20049;-88
2022/10/24 21:22:29;;;;;;;8.88;2.25;;;;;;;;;;4881799;29;20071;-88
2022/10/24 21:25:02;;;;;;;7.15;2.50;;;;;;;;;;4866949;29;20045;-88
2022/10/24 21:27:30;;;;;;;9.10;2.63;;;;;;;;;;4864238;29;20388;-88
2022/10/24 21:29:57;;;;;;;13.25;2.15;;;;;;;;;;4883606;29;20554;-88
2022/10/24 21:32:29;;;;;;;6.38;2.60;;;;;;;;;;4879697;29;20048;-88
2022/10/24 21:34:57;;;;;;;5.18;2.38;;;;;;;;;;4879838;29;20045;-88
2022/10/24 21:37:31;;;;;;;12.68;2.55;;;;;;;;;;4895030;29;20452;-88
2022/10/24 21:39:59;;;;;;;8.75;3.08;;;;;;;;;;4892556;29;20040;-88
2022/10/24 21:42:31;;;;;;;6.78;2.40;;;;;;;;;;4867425;29;20396;-89
2022/10/24 21:44:59;;;;;;;9.45;2.60;;;;;;;;;;4868351;29;20094;-88
2022/10/24 21:47:27;;;;;;;13.43;2.22;;;;;;;;;;4864610;29;20048;-88
2022/10/24 21:49:59;;;;;;;9.95;2.30;;;;;;;;;;4879902;29;20464;-89
2022/10/24 21:52:31;;;;;;;11.60;2.90;;;;;;;;;;4880372;29;20049;-88
2022/10/24 21:54:59;;;;;;;8.32;2.30;;;;;;;;;;4880085;29;20136;-89
2022/10/24 21:57:28;;;;;;;10.98;2.10;;;;;;;;;;4894444;29;20478;-88
2022/10/24 21:59:55;;;;;;;8.55;2.17;;;;;;;;;;4882603;29;20049;-88
2022/10/24 22:02:23;;;;;;;8.52;2.70;;;;;;;;;;4876208;29;20131;-88
2022/10/24 22:04:51;;;;;;;11.07;2.30;;;;;;;;;;4895241;29;20100;-88
2022/10/24 22:07:43;;;;;;;8.18;2.13;;;;;;;;;;4870810;29;20033;-88
2022/10/24 22:10:15;;;;;;;11.02;2.17;;;;;;;;;;4883769;29;20491;-89
2022/10/24 22:12:43;;;;;;;6.10;1.95;;;;;;;;;;4879897;29;20055;-88
2022/10/24 22:15:35;;;;;;;7.07;2.40;;;;;;;;;;4879102;29;20040;-88
2022/10/24 22:18:03;;;;;;;7.53;2.35;;;;;;;;;;4878495;29;20037;-88
2022/10/24 22:20:31;;;;;;;14.27;2.25;;;;;;;;;;4878940;29;20055;-89
2022/10/24 22:22:59;;;;;;;8.20;2.53;;;;;;;;;;4884696;29;20098;-88
2022/10/24 22:25:27;;;;;;;14.20;2.55;;;;;;;;;;4882526;29;20072;-88
2022/10/24 22:27:55;;;;;;;10.77;2.15;;;;;;;;;;4882383;29;20089;-88
2022/10/24 22:30:27;;;;;;;9.32;2.00;;;;;;;;;;4868867;29;20056;-88
2022/10/24 22:32:59;;;;;;;7.00;1.80;;;;;;;;;;4870660;29;20050;-89
2022/10/24 22:35:28;;;;;;;10.65;2.40;;;;;;;;;;4886147;29;20052;-88
2022/10/24 22:37:55;;;;;;;8.20;1.80;;;;;;;;;;4884641;29;20096;-88
2022/10/24 22:40:28;;;;;;;7.97;2.03;;;;;;;;;;4899463;29;20456;-88
2022/10/24 22:43:19;;;;;;;7.97;2.40;;;;;;;;;;4884018;29;20045;-88
2022/10/24 22:46:02;;;;;;;9.25;2.10;;;;;;;;;;4879312;29;20388;-88
2022/10/24 22:48:38;;;;;;;7.72;1.73;;;;;;;;;;4882995;29;20037;-88
2022/10/24 22:51:05;;;;;;;10.68;2.28;;;;;;;;;;4884349;29;20037;-88
2022/10/24 22:53:37;;;;;;;11.18;2.00;;;;;;;;;;4881842;29;20499;-87
2022/10/24 22:56:25;;;;;;;9.88;1.98;;;;;;;;;;4884153;29;20116;-88
2022/10/24 22:58:53;;;;;;;6.40;1.67;;;;;;;;;;4884169;29;20045;-88